Time;durP1;ratioP1;P1;durP2;ratioP2;P2;SDS_P1;SDS_P2;PMS_P1;PMS_P2;Temp;Humidity;BMP_temperature;BMP_pressure;BME280_temperature;BME280_humidity;BME280_pressure;Samples;Min_cycle;Max_cycle;Signal;HPM_P1;HPM_P2
2021/06/04 00:00:49;;;;;;;6.65;2.20;;;;;;;14.66;87.74;100858.17;1806720;79;20165;-65
2021/06/04 00:07:21;;;;;;;3.67;2.27;;;;;;;14.67;87.70;100857.17;1711905;81;21394;-64
2021/06/04 00:09:54;;;;;;;4.55;2.17;;;;;;;14.64;87.55;100853.03;1804956;79;21982;-66
2021/06/04 00:12:28;;;;;;;4.55;2.10;;;;;;;14.64;87.66;100851.71;1805628;79;21259;-66
2021/06/04 00:15:01;;;;;;;;;;;;;;;14.67;87.73;100851.42;1807471;79;21152;-66
2021/06/04 00:17:35;;;;;;;3.70;2.33;;;;;;;14.68;87.62;100850.46;1805697;79;20253;-65
2021/06/04 00:20:15;;;;;;;3.98;2.75;;;;;;;14.65;87.57;100849.91;1806536;79;21239;-66
2021/06/04 00:22:50;;;;;;;3.58;2.40;;;;;;;14.65;87.68;100845.48;1804464;79;21255;-65
2021/06/04 00:25:24;;;;;;;5.05;2.55;;;;;;;14.67;87.65;100848.79;1804859;79;21698;-66
2021/06/04 00:27:59;;;;;;;2.37;2.17;;;;;;;14.68;87.66;100851.78;1805036;79;21320;-66
2021/06/04 00:30:33;;;;;;;5.62;2.35;;;;;;;14.69;87.57;100852.10;1806458;79;21160;-65
2021/06/04 00:33:27;;;;;;;2.93;2.20;;;;;;;14.71;87.63;100847.50;1805528;79;21168;-65
2021/06/04 00:36:01;;;;;;;4.17;2.30;;;;;;;14.73;87.84;100850.02;1743917;82;21176;-65
2021/06/04 00:38:35;;;;;;;4.58;2.42;;;;;;;14.73;87.56;100848.70;1745136;82;21818;-66
2021/06/04 00:41:16;;;;;;;3.00;2.70;;;;;;;14.69;87.42;100845.99;1745969;82;21311;-65
2021/06/04 00:43:50;;;;;;;5.85;2.40;;;;;;;14.67;87.66;100844.84;1744691;82;21275;-66
2021/06/04 00:46:25;;;;;;;6.47;2.33;;;;;;;14.70;87.78;100845.03;1722104;82;21133;-66
2021/06/04 00:48:59;;;;;;;4.60;2.75;;;;;;;14.72;87.76;100849.18;1743853;81;21188;-66
2021/06/04 00:51:41;;;;;;;2.80;2.17;;;;;;;14.74;87.66;100847.22;1745512;82;21271;-66
2021/06/04 00:54:17;;;;;;;4.25;2.17;;;;;;;14.75;87.61;100842.78;1744965;82;21220;-66
2021/06/04 00:56:51;;;;;;;5.15;2.30;;;;;;;14.76;87.54;100844.42;1742118;81;21224;-65
2021/06/04 00:59:34;;;;;;;2.92;2.02;;;;;;;14.75;87.30;100842.78;1736146;82;21743;-66
2021/06/04 01:02:09;;;;;;;3.15;2.17;;;;;;;14.74;87.30;100848.54;1736664;82;21771;-66
2021/06/04 01:04:44;;;;;;;5.60;2.30;;;;;;;14.74;87.27;100849.02;1735040;81;21145;-67
2021/06/04 01:07:31;;;;;;;4.85;2.33;;;;;;;14.73;87.27;100850.02;1736444;82;21299;-67
2021/06/04 01:10:28;;;;;;;6.30;2.00;;;;;;;14.70;87.22;100851.63;1735638;82;21291;-68
2021/06/04 01:13:10;;;;;;;5.65;2.40;;;;;;;14.67;87.28;100850.11;1735155;82;21169;-66
2021/06/04 01:16:12;;;;;;;4.90;2.40;;;;;;;14.66;87.32;100851.59;1734968;82;21283;-66
2021/06/04 01:19:18;;;;;;;6.55;2.37;;;;;;;14.64;87.34;100854.34;1734961;82;21200;-67
2021/06/04 01:21:59;;;;;;;4.05;2.50;;;;;;;14.60;87.30;100829.28;1695427;82;21287;-66
2021/06/04 01:24:51;;;;;;;5.37;2.70;;;;;;;14.57;87.28;100819.02;1735020;82;21237;-67
2021/06/04 01:27:30;;;;;;;2.95;2.22;;;;;;;14.55;87.50;100819.67;1736462;82;21264;-67
2021/06/04 01:30:30;;;;;;;2.40;2.20;;;;;;;14.55;87.63;100828.89;1735316;82;21185;-66
2021/06/04 01:33:15;;;;;;;2.92;2.62;;;;;;;14.57;87.71;100836.63;1712448;82;21188;-65
2021/06/04 01:35:57;;;;;;;5.60;2.85;;;;;;;14.57;87.80;100833.52;1740354;81;21185;-65
2021/06/04 01:38:36;;;;;;;7.08;2.95;;;;;;;14.57;87.76;100835.31;1736955;82;21141;-65
2021/06/04 01:41:14;;;;;;;3.65;2.25;;;;;;;14.58;87.89;100836.98;1735436;82;21208;-65
2021/06/04 01:43:55;;;;;;;4.55;2.75;;;;;;;14.59;88.01;100840.78;1733928;82;21255;-65
2021/06/04 01:46:32;;;;;;;5.28;2.92;;;;;;;14.62;88.07;100846.25;1735688;82;21146;-65
2021/06/04 01:49:13;;;;;;;4.95;2.58;;;;;;;14.62;88.07;100845.77;1709655;82;21259;-65
2021/06/04 01:51:51;;;;;;;3.33;2.37;;;;;;;14.66;88.03;100850.27;1710229;82;21300;-66
2021/06/04 01:54:33;;;;;;;4.75;2.98;;;;;;;14.66;87.91;100855.02;1734154;82;21257;-66
2021/06/04 01:57:18;;;;;;;5.50;3.08;;;;;;;14.66;87.93;100852.39;1734983;82;21215;-68
2021/06/04 01:59:52;;;;;;;3.52;3.00;;;;;;;14.65;87.88;100857.34;1736488;82;21275;-67
2021/06/04 02:02:43;;;;;;;3.35;2.87;;;;;;;14.67;87.89;100857.17;1736638;82;21308;-66
2021/06/04 02:05:23;;;;;;;4.83;3.05;;;;;;;14.67;87.88;100854.54;1730259;82;21201;-66
2021/06/04 02:07:56;;;;;;;8.03;2.80;;;;;;;14.68;87.78;100857.53;1736368;82;22172;-66
2021/06/04 02:10:41;;;;;;;;;;;;;;;14.68;87.74;100857.53;1738675;82;21279;-66
2021/06/04 02:13:14;;;;;;;6.28;2.47;;;;;;;14.65;87.71;100856.50;1736760;82;20392;-66
2021/06/04 02:15:52;;;;;;;4.25;2.95;;;;;;;14.66;87.91;100862.93;1733571;82;21731;-66
2021/06/04 02:18:42;;;;;;;5.40;2.70;;;;;;;14.67;87.87;100857.17;1732402;82;21629;-66
2021/06/04 02:21:24;;;;;;;6.67;2.90;;;;;;;14.70;87.84;100868.27;1733105;82;21492;-67
2021/06/04 02:24:15;;;;;;;6.08;2.90;;;;;;;14.74;87.94;100871.42;1732355;82;21236;-67
2021/06/04 02:27:09;;;;;;;5.37;3.37;;;;;;;14.80;87.93;100872.17;1732005;82;21207;-67
2021/06/04 02:29:52;;;;;;;4.03;2.95;;;;;;;14.85;87.89;100869.41;1715546;82;21779;-67
2021/06/04 02:32:32;;;;;;;7.75;3.20;;;;;;;14.93;87.86;100869.15;1734193;82;21303;-67
2021/06/04 02:35:36;;;;;;;5.42;2.87;;;;;;;14.99;87.73;100873.84;1734009;82;21608;-66
2021/06/04 02:38:14;;;;;;;3.60;2.80;;;;;;;15.05;87.62;100871.91;1731730;81;22042;-66
2021/06/04 02:40:51;;;;;;;4.53;2.95;;;;;;;15.14;87.65;100873.16;1726487;82;21193;-65
2021/06/04 02:43:38;;;;;;;3.80;2.72;;;;;;;15.22;87.46;100870.61;1705509;82;21342;-67
2021/06/04 02:46:30;;;;;;;7.00;2.75;;;;;;;15.28;87.08;100868.70;1707792;82;21276;-66
2021/06/04 02:49:05;;;;;;;8.40;3.27;;;;;;;15.33;86.78;100868.25;1732141;82;21970;-67
2021/06/04 02:52:09;;;;;;;3.90;3.05;;;;;;;15.35;86.55;100861.00;1707744;82;21208;-66
2021/06/04 02:54:44;;;;;;;3.67;2.80;;;;;;;15.38;86.38;100855.43;1732966;82;21130;-66
2021/06/04 02:57:22;;;;;;;9.15;2.83;;;;;;;15.42;86.22;100861.56;1730808;82;21204;-67
2021/06/04 02:59:55;;;;;;;7.33;2.98;;;;;;;15.45;85.95;100857.83;1733009;82;21493;-66
2021/06/04 03:02:32;;;;;;;7.47;3.22;;;;;;;15.48;85.78;100864.94;1732810;82;21656;-67
2021/06/04 03:05:13;;;;;;;7.30;3.35;;;;;;;15.50;85.62;100864.77;1732928;82;22015;-67
2021/06/04 03:07:46;;;;;;;5.25;3.22;;;;;;;15.54;85.56;100863.98;1731206;82;21553;-69
2021/06/04 03:10:25;;;;;;;4.90;2.80;;;;;;;15.59;85.46;100869.64;1731405;82;21240;-68
2021/06/04 03:12:59;;;;;;;8.33;3.25;;;;;;;15.64;85.55;100875.29;1731020;82;22091;-70
2021/06/04 03:15:41;;;;;;;3.30;2.95;;;;;;;15.69;85.46;100872.50;1732539;82;21466;-68
2021/06/04 03:18:20;;;;;;;6.50;2.72;;;;;;;15.75;85.44;100876.35;1730751;82;21192;-69
2021/06/04 03:20:54;;;;;;;5.50;3.17;;;;;;;15.83;85.40;100881.70;1730702;82;21470;-68
2021/06/04 03:23:36;;;;;;;5.37;3.00;;;;;;;15.92;85.35;100879.45;1732496;82;21184;-69
2021/06/04 03:26:19;;;;;;;5.92;2.72;;;;;;;15.99;85.33;100874.72;1733201;82;21279;-68
2021/06/04 03:29:01;;;;;;;5.03;3.15;;;;;;;16.07;85.17;100873.94;1736252;82;21323;-69
2021/06/04 03:31:37;;;;;;;6.30;3.30;;;;;;;16.15;84.84;100878.77;1736366;82;21286;-67
2021/06/04 03:34:15;;;;;;;5.15;2.60;;;;;;;16.19;84.92;100877.45;1710388;82;21117;-68
2021/06/04 03:36:55;;;;;;;3.90;2.85;;;;;;;16.25;84.55;100871.21;1709153;82;21260;-68
2021/06/04 03:39:40;;;;;;;3.85;2.90;;;;;;;16.28;84.11;100870.42;1739780;81;21220;-68
2021/06/04 03:42:22;;;;;;;8.33;2.58;;;;;;;16.30;83.69;100869.76;1729995;82;21291;-67
2021/06/04 03:44:57;;;;;;;6.00;3.00;;;;;;;16.33;83.40;100869.94;1736111;82;21305;-68
2021/06/04 03:47:32;;;;;;;8.93;3.27;;;;;;;16.35;83.08;100870.61;1746585;82;21469;-68
2021/06/04 03:50:09;;;;;;;4.00;2.87;;;;;;;16.37;82.76;100871.27;1746625;82;21172;-67
2021/06/04 03:52:42;;;;;;;6.30;3.22;;;;;;;16.43;82.74;100866.17;1745954;82;21330;-69
2021/06/04 03:55:18;;;;;;;7.33;3.60;;;;;;;16.50;82.64;100861.91;1747822;82;21188;-69
2021/06/04 03:57:51;;;;;;;5.30;3.20;;;;;;;16.57;82.28;100866.11;1747363;82;22130;-68
2021/06/04 04:00:32;;;;;;;11.35;3.55;;;;;;;16.64;82.13;100863.16;1748673;82;21798;-67
2021/06/04 04:03:06;;;;;;;3.72;2.90;;;;;;;16.72;81.89;100863.17;1747782;82;21283;-68
2021/06/04 04:05:40;;;;;;;8.63;3.47;;;;;;;16.78;81.83;100855.93;1749101;82;21255;-67
2021/06/04 04:08:15;;;;;;;5.05;2.80;;;;;;;16.86;81.65;100855.13;1747414;82;21326;-67
2021/06/04 04:10:50;;;;;;;5.08;3.10;;;;;;;16.90;81.19;100857.28;1746646;82;21216;-68
2021/06/04 04:13:23;;;;;;;6.97;3.53;;;;;;;16.97;80.81;100860.94;1744271;82;21263;-67
2021/06/04 04:15:57;;;;;;;8.33;3.83;;;;;;;17.04;80.62;100861.94;1745439;82;21359;-67
2021/06/04 04:18:30;;;;;;;4.40;3.20;;;;;;;17.09;80.35;100860.13;1744170;82;21259;-68
2021/06/04 04:21:07;;;;;;;4.12;2.83;;;;;;;17.12;79.79;100860.64;1744420;81;21527;-67
2021/06/04 04:23:53;;;;;;;4.00;2.90;;;;;;;17.12;79.40;100863.28;1745268;82;21282;-67
2021/06/04 04:26:35;;;;;;;4.08;2.92;;;;;;;17.13;79.17;100862.28;1724708;82;21575;-67
2021/06/04 04:29:11;;;;;;;4.00;3.02;;;;;;;17.15;78.93;100864.27;1718134;83;21263;-68
2021/06/04 04:31:48;;;;;;;6.20;2.80;;;;;;;17.18;78.97;100865.75;1718290;83;21260;-67
2021/06/04 04:34:22;;;;;;;7.92;2.92;;;;;;;17.19;79.13;100867.42;1724589;82;21806;-67
2021/06/04 04:36:59;;;;;;;7.90;3.30;;;;;;;17.19;79.11;100864.78;1745016;82;22043;-67
2021/06/04 04:39:36;;;;;;;5.72;3.30;;;;;;;17.20;79.08;100873.02;1745029;82;22015;-68
2021/06/04 04:42:12;;;;;;;6.33;2.87;;;;;;;17.17;78.94;100872.05;1745547;81;21481;-68
2021/06/04 04:44:47;;;;;;;5.60;3.02;;;;;;;17.12;78.93;100875.20;1776157;80;21223;-69
2021/06/04 04:47:22;;;;;;;4.95;2.90;;;;;;;17.06;78.98;100869.21;1776223;80;21263;-68
2021/06/04 04:53:51;;;;;;;4.83;2.83;;;;;;;16.95;78.86;100873.98;1774335;80;21171;-65
2021/06/04 05:00:33;;;;;;;3.08;2.33;;;;;;;16.80;79.26;100873.30;1775603;80;21100;-66
2021/06/04 05:07:16;;;;;;;6.08;2.92;;;;;;;16.86;79.87;100885.02;1775372;80;21124;-71
2021/06/04 05:09:50;;;;;;;4.40;2.90;;;;;;;16.90;80.00;100879.77;1745644;80;21982;-65
2021/06/04 05:16:34;;;;;;;16.85;3.17;;;;;;;17.00;79.11;100882.27;1775541;80;21327;-67
2021/06/04 05:19:08;;;;;;;7.95;3.17;;;;;;;17.04;79.21;100887.56;1774890;80;21271;-67
2021/06/04 05:21:41;;;;;;;10.98;3.22;;;;;;;17.12;79.01;100894.20;1775475;80;21581;-70
2021/06/04 05:24:15;;;;;;;3.87;2.62;;;;;;;17.20;78.76;100892.88;1774351;80;21316;-59
2021/06/04 05:26:49;;;;;;;14.90;8.78;;;;;;;17.31;78.46;100892.58;1775335;80;21270;-63
2021/06/04 05:29:21;;;;;;;;;;;;;;;17.46;78.32;100895.72;1776816;80;21277;-67
2021/06/04 05:31:54;;;;;;;4.67;2.92;;;;;;;17.61;77.58;100899.05;1774786;80;20744;-64
2021/06/04 05:34:27;;;;;;;10.63;3.60;;;;;;;17.75;77.22;100899.22;1774196;80;21290;-69
2021/06/04 05:37:00;;;;;;;5.17;2.93;;;;;;;17.92;76.66;100906.16;1775524;80;21952;-68
2021/06/04 05:39:34;;;;;;;8.23;2.92;;;;;;;18.09;76.17;100907.80;1774251;80;21427;-67
2021/06/04 05:42:08;;;;;;;3.70;2.27;;;;;;;18.23;75.61;100908.92;1775487;80;22056;-66
2021/06/04 05:44:42;;;;;;;6.83;2.45;;;;;;;18.40;75.70;100907.05;1754871;80;21552;-66
2021/06/04 05:47:17;;;;;;;6.70;2.08;;;;;;;18.58;73.60;100907.70;1746409;82;21176;-63
2021/06/04 05:49:50;;;;;;;;;;;;;;;18.71;72.75;100901.33;1749361;82;21298;-64
2021/06/04 05:52:23;;;;;;;7.25;2.30;;;;;;;18.93;72.49;100903.22;1747859;82;20327;-66
2021/06/04 05:54:57;;;;;;;4.50;2.00;;;;;;;19.10;71.51;100903.45;1746499;82;21187;-65
2021/06/04 05:57:30;;;;;;;3.90;2.20;;;;;;;19.14;70.53;100899.43;1747430;82;21318;-64
2021/06/04 06:00:12;;;;;;;3.27;1.90;;;;;;;19.16;68.79;100897.42;1746833;82;22018;-66
2021/06/04 06:02:48;;;;;;;4.08;2.00;;;;;;;19.11;68.43;100895.80;1747816;82;21549;-65
2021/06/04 06:05:21;;;;;;;5.22;2.33;;;;;;;19.16;67.77;100899.25;1746732;82;21353;-67
2021/06/04 06:07:55;;;;;;;4.78;1.82;;;;;;;19.21;66.57;100892.42;1747765;82;21196;-70
2021/06/04 06:10:30;;;;;;;10.25;2.15;;;;;;;19.22;65.94;100894.08;1746568;82;21522;-68
2021/06/04 06:13:03;;;;;;;6.35;2.02;;;;;;;19.28;65.96;100896.52;1748379;82;21310;-72
2021/06/04 06:15:38;;;;;;;4.70;2.08;;;;;;;19.38;67.08;100891.83;1746887;82;21310;-70
2021/06/04 06:18:12;;;;;;;5.00;2.45;;;;;;;19.59;67.26;100889.83;1747510;82;21357;-70
2021/06/04 06:20:45;;;;;;;4.87;2.20;;;;;;;19.83;67.69;100898.42;1746597;82;21317;-66
2021/06/04 06:23:21;;;;;;;5.70;2.50;;;;;;;20.07;67.42;100894.70;1748579;82;21287;-73
2021/06/04 06:25:58;;;;;;;8.85;2.60;;;;;;;20.22;66.61;100890.72;1746778;82;21640;-70
2021/06/04 06:28:34;;;;;;;4.42;2.45;;;;;;;20.23;66.40;100893.75;1747905;82;21231;-63
2021/06/04 06:35:21;;;;;;;3.72;2.20;;;;;;;20.04;65.43;100890.57;1747573;81;21199;-62
2021/06/04 06:37:54;;;;;;;6.55;2.25;;;;;;;19.82;65.20;100892.77;1747633;82;21200;-66
2021/06/04 06:40:27;;;;;;;4.35;2.60;;;;;;;19.72;65.44;100891.39;1746827;82;22104;-66
2021/06/04 06:43:00;;;;;;;;;;;;;;;19.63;65.66;100895.94;1750259;82;21577;-67
2021/06/04 06:45:35;;;;;;;4.30;2.45;;;;;;;19.57;65.47;100895.33;1746734;80;20751;-62
2021/06/04 06:48:10;;;;;;;4.10;2.17;;;;;;;19.48;65.57;100899.06;1718914;82;21169;-64
2021/06/04 06:50:44;;;;;;;7.62;2.42;;;;;;;19.40;65.98;100902.60;1747090;82;21220;-68
2021/06/04 06:53:19;;;;;;;5.50;2.40;;;;;;;19.34;66.56;100901.13;1748031;82;21298;-63
2021/06/04 06:55:55;;;;;;;8.48;2.92;;;;;;;19.32;67.04;100903.94;1747101;82;21224;-62
2021/06/04 06:58:32;;;;;;;6.67;2.37;;;;;;;19.33;67.88;100906.11;1746666;82;21621;-64
2021/06/04 07:01:06;;;;;;;8.35;2.33;;;;;;;19.36;67.21;100905.79;1746911;82;21322;-64
2021/06/04 07:03:41;;;;;;;2.65;2.17;;;;;;;19.39;67.39;100906.77;1747634;82;21310;-65
2021/06/04 07:06:26;;;;;;;3.37;2.25;;;;;;;19.49;67.47;100909.50;1746714;82;21220;-64
2021/06/04 07:09:01;;;;;;;6.65;2.45;;;;;;;19.59;67.25;100897.80;1747604;82;21342;-60
2021/06/04 07:11:36;;;;;;;7.00;2.45;;;;;;;19.64;66.47;100897.59;1746586;82;21469;-67
2021/06/04 07:14:13;;;;;;;5.20;2.15;;;;;;;19.69;67.20;100904.53;1748201;82;21379;-62
2021/06/04 07:16:47;;;;;;;4.58;2.00;;;;;;;19.77;67.36;100902.31;1746451;82;22162;-65
2021/06/04 07:19:22;;;;;;;6.37;2.17;;;;;;;19.85;66.83;100903.05;1747932;82;22007;-65
2021/06/04 07:21:56;;;;;;;4.75;2.10;;;;;;;19.91;67.41;100901.52;1746682;82;21429;-67
2021/06/04 07:24:30;;;;;;;3.65;2.05;;;;;;;20.02;66.88;100904.55;1748155;82;22110;-71
2021/06/04 07:27:05;;;;;;;5.25;2.00;;;;;;;20.12;66.14;100898.47;1746600;82;21459;-65
2021/06/04 07:29:38;;;;;;;4.75;2.08;;;;;;;20.16;66.46;100905.06;1748060;82;22008;-67
2021/06/04 07:32:11;;;;;;;5.55;2.15;;;;;;;20.16;66.63;100902.41;1746942;82;21282;-67
2021/06/04 07:34:47;;;;;;;7.60;2.10;;;;;;;20.17;65.66;100904.56;1747880;82;21341;-67
2021/06/04 07:37:20;;;;;;;6.65;1.90;;;;;;;20.12;65.02;100902.46;1746214;82;21357;-71
2021/06/04 07:39:55;;;;;;;8.70;2.27;;;;;;;20.09;64.82;100899.33;1747693;82;21573;-64
2021/06/04 07:42:28;;;;;;;6.40;2.37;;;;;;;20.03;64.69;100896.08;1746443;82;21314;-72
2021/06/04 07:45:02;;;;;;;5.67;1.98;;;;;;;20.00;65.43;100891.12;1747574;82;21298;-66
2021/06/04 07:47:36;;;;;;;5.58;1.87;;;;;;;19.91;64.96;100889.06;1756856;80;21538;-65
2021/06/04 07:50:12;;;;;;;3.67;2.02;;;;;;;19.86;65.44;100883.95;1762139;80;21350;-66
2021/06/04 07:52:46;;;;;;;4.65;2.00;;;;;;;19.84;66.02;100881.48;1755649;80;22150;-62
2021/06/04 07:55:20;;;;;;;3.45;1.98;;;;;;;19.87;66.28;100877.12;1748261;81;21239;-63
2021/06/04 07:57:54;;;;;;;5.37;1.98;;;;;;;19.93;66.48;100876.91;1752765;81;21250;-61
2021/06/04 08:00:30;;;;;;;7.97;1.98;;;;;;;19.98;67.12;100880.68;1753593;81;21306;-66
2021/06/04 08:03:06;;;;;;;6.22;2.30;;;;;;;20.02;66.53;100877.14;1753534;81;21180;-68
2021/06/04 08:05:40;;;;;;;4.10;1.90;;;;;;;20.07;66.38;100883.57;1753562;81;21478;-68
2021/06/04 08:08:13;;;;;;;6.42;2.15;;;;;;;20.10;65.86;100883.71;1753826;81;21367;-67
2021/06/04 08:10:48;;;;;;;5.45;1.50;;;;;;;20.15;66.10;100885.32;1753327;81;21200;-68
2021/06/04 08:13:22;;;;;;;5.60;2.00;;;;;;;20.28;66.14;100884.69;1753568;81;22005;-75
2021/06/04 08:16:00;;;;;;;5.08;1.98;;;;;;;20.43;65.95;100886.85;1753510;81;21188;-73
2021/06/04 08:18:36;;;;;;;8.43;2.10;;;;;;;20.59;65.02;100885.31;1753447;81;21306;-68
2021/06/04 08:21:17;;;;;;;6.72;2.30;;;;;;;20.78;64.87;100888.73;1753428;81;21562;-68
2021/06/04 08:23:53;;;;;;;3.10;1.90;;;;;;;20.94;64.18;100883.70;1754472;81;21326;-69
2021/06/04 08:26:31;;;;;;;3.65;2.00;;;;;;;21.10;63.81;100880.83;1753138;81;21541;-67
2021/06/04 08:29:05;;;;;;;6.55;1.70;;;;;;;21.20;62.92;100878.19;1753326;81;21310;-72
2021/06/04 08:31:40;;;;;;;6.97;2.02;;;;;;;21.25;62.10;100876.28;1752953;81;21195;-68
2021/06/04 08:34:16;;;;;;;3.67;1.70;;;;;;;21.23;62.25;100875.66;1753718;81;22178;-71
2021/06/04 08:36:53;;;;;;;4.85;1.70;;;;;;;21.21;62.13;100877.16;1753211;81;21356;-67
2021/06/04 08:39:31;;;;;;;7.30;1.98;;;;;;;21.18;62.35;100876.73;1753456;81;21219;-66
2021/06/04 08:42:25;;;;;;;2.85;1.77;;;;;;;21.15;62.33;100880.59;1752881;81;21318;-70
2021/06/04 08:45:12;;;;;;;2.42;1.70;;;;;;;21.11;61.62;100886.48;1754775;81;22032;-67
2021/06/04 08:47:48;;;;;;;3.08;1.57;;;;;;;21.07;61.96;100891.85;1752534;81;21235;-65
2021/06/04 08:50:49;;;;;;;2.77;1.95;;;;;;;21.05;61.78;100882.73;1722313;81;22011;-68
2021/06/04 08:53:28;;;;;;;6.83;2.35;;;;;;;21.04;62.00;100889.03;1750307;81;21326;-71
2021/06/04 08:56:10;;;;;;;11.53;1.95;;;;;;;21.01;61.36;100892.59;1750780;82;21306;-66
2021/06/04 08:59:10;;;;;;;6.67;1.90;;;;;;;20.97;61.73;100899.31;1751256;82;22109;-67
2021/06/04 09:02:03;;;;;;;3.10;1.52;;;;;;;20.92;61.57;100899.05;1753710;81;21322;-66
2021/06/04 09:04:56;;;;;;;5.55;2.02;;;;;;;20.87;61.35;100897.45;1750907;82;21283;-69
2021/06/04 09:07:38;;;;;;;8.18;1.67;;;;;;;20.78;61.76;100893.55;1730434;82;22124;-69
2021/06/04 09:10:25;;;;;;;6.10;1.87;;;;;;;20.71;62.75;100898.47;1750843;82;21366;-69
2021/06/04 09:13:11;;;;;;;4.70;1.90;;;;;;;20.62;62.41;100893.77;1750057;82;21290;-70
2021/06/04 09:15:45;;;;;;;4.92;1.47;;;;;;;20.56;62.33;100898.48;1721775;82;21319;-69
2021/06/04 09:18:23;;;;;;;6.87;2.20;;;;;;;20.51;62.78;100894.25;1739336;82;21318;-67
2021/06/04 09:21:06;;;;;;;7.15;2.00;;;;;;;20.49;63.78;100897.58;1740305;82;21347;-66
2021/06/04 09:23:41;;;;;;;8.25;2.30;;;;;;;20.48;64.18;100891.95;1738894;82;21357;-67
2021/06/04 09:26:21;;;;;;;4.95;1.75;;;;;;;20.43;64.36;100895.66;1740152;82;21303;-66
2021/06/04 09:33:23;;;;;;;6.67;1.75;;;;;;;20.34;64.34;100898.10;1739464;82;21574;-67
2021/06/04 09:36:13;;;;;;;4.50;1.62;;;;;;;20.25;64.32;100901.87;1740196;82;21311;-66
2021/06/04 09:39:09;;;;;;;5.28;1.95;;;;;;;20.16;64.70;100896.26;1739347;82;21366;-65
2021/06/04 09:46:00;;;;;;;5.53;2.00;;;;;;;20.05;65.71;100898.05;1740236;82;21994;-64
2021/06/04 09:48:57;;;;;;;8.90;2.30;;;;;;;19.97;65.46;100890.97;1739605;82;21307;-68
2021/06/04 09:51:38;;;;;;;5.97;2.30;;;;;;;19.91;64.62;100895.70;1740257;82;21181;-68
2021/06/04 09:54:28;;;;;;;4.92;2.20;;;;;;;19.86;64.98;100889.27;1743286;81;21683;-70
2021/06/04 09:57:17;;;;;;;4.58;1.85;;;;;;;19.82;65.76;100886.66;1773900;80;21632;-69
2021/06/04 09:59:52;;;;;;;5.87;1.92;;;;;;;19.75;65.59;100891.84;1773931;80;21513;-63
2021/06/04 10:02:32;;;;;;;5.80;2.15;;;;;;;19.70;66.32;100886.77;1775397;80;21278;-69
2021/06/04 10:05:28;;;;;;;6.17;2.15;;;;;;;19.65;66.36;100884.66;1775210;80;21167;-64
2021/06/04 10:08:06;;;;;;;8.03;2.80;;;;;;;19.59;66.52;100884.02;1773756;80;21160;-65
2021/06/04 10:10:40;;;;;;;9.53;3.30;;;;;;;19.50;67.15;100890.41;1773356;80;21152;-60
2021/06/04 10:13:35;;;;;;;7.70;2.92;;;;;;;19.38;67.99;100899.30;1775250;80;21279;-64
2021/06/04 10:19:42;;;;;;;5.33;2.52;;;;;;;19.05;71.16;100899.16;1773798;80;21398;-66
2021/06/04 10:22:39;;;;;;;8.13;2.10;;;;;;;18.95;72.46;100901.20;1775220;80;21283;-65
2021/06/04 10:25:17;;;;;;;8.10;1.92;;;;;;;18.90;73.16;100904.87;1773974;80;21440;-65
2021/06/04 10:27:59;;;;;;;4.22;1.85;;;;;;;18.86;73.40;100909.38;1775697;80;22075;-64
2021/06/04 10:30:37;;;;;;;5.90;2.00;;;;;;;18.75;70.57;100906.11;1775446;80;21279;-75
2021/06/04 10:33:37;;;;;;;12.98;2.60;;;;;;;18.59;68.26;100908.01;1775428;80;21420;-70
2021/06/04 10:36:11;;;;;;;6.78;2.65;;;;;;;18.44;67.31;100911.83;1775570;80;22184;-69
2021/06/04 10:38:53;;;;;;;11.10;2.58;;;;;;;18.27;66.58;100909.42;1775416;80;21367;-64
2021/06/04 10:41:31;;;;;;;6.47;2.20;;;;;;;18.17;66.08;100917.56;1775408;80;22063;-72
2021/06/04 10:44:20;;;;;;;8.90;2.20;;;;;;;18.08;66.26;100915.89;1774665;80;22068;-63
2021/06/04 10:47:01;;;;;;;7.28;1.92;;;;;;;17.98;65.71;100913.95;1775467;80;21137;-62
2021/06/04 10:50:04;;;;;;;7.85;2.02;;;;;;;17.88;65.89;100920.75;1774642;80;21211;-61
2021/06/04 10:53:04;;;;;;;9.38;2.15;;;;;;;17.85;66.79;100919.75;1775478;80;21172;-61
2021/06/04 10:55:41;;;;;;;11.78;2.08;;;;;;;17.83;67.36;100919.58;1774837;80;21420;-60
2021/06/04 10:58:27;;;;;;;6.50;1.98;;;;;;;17.77;67.54;100921.06;1774392;80;21298;-68
2021/06/04 11:01:07;;;;;;;7.20;2.05;;;;;;;17.73;67.77;100925.54;1773647;80;21286;-60
2021/06/04 11:04:05;;;;;;;8.60;1.90;;;;;;;17.66;67.98;100928.03;1774066;80;21164;-66
2021/06/04 11:07:04;;;;;;;10.03;1.80;;;;;;;17.63;68.11;100928.84;1775094;80;21528;-64
2021/06/04 11:10:08;;;;;;;3.67;1.70;;;;;;;17.61;67.90;100935.63;1775106;80;22212;-64
2021/06/04 11:13:21;;;;;;;10.82;2.00;;;;;;;17.54;68.21;100931.99;1773802;80;21515;-61
2021/06/04 11:16:33;;;;;;;8.00;1.85;;;;;;;17.52;68.11;100937.95;1773735;80;21444;-65
2021/06/04 11:19:21;;;;;;;6.55;1.90;;;;;;;17.52;67.94;100942.41;1775606;80;21434;-65
2021/06/04 11:21:56;;;;;;;4.33;1.82;;;;;;;17.54;68.15;100941.75;1775194;80;21402;-67
2021/06/04 11:24:43;;;;;;;7.25;1.60;;;;;;;17.53;67.41;100943.56;1774692;80;22123;-65
2021/06/04 11:27:42;;;;;;;4.60;1.85;;;;;;;17.56;67.32;100945.89;1769928;80;21298;-67
2021/06/04 11:30:27;;;;;;;2.90;1.55;;;;;;;17.57;67.75;100942.75;1775196;80;21211;-63
2021/06/04 11:33:21;;;;;;;6.78;2.02;;;;;;;17.61;67.54;100946.23;1722427;82;21224;-63
2021/06/04 11:36:13;;;;;;;9.25;1.90;;;;;;;17.67;67.60;100938.97;1729834;82;21585;-68
2021/06/04 11:39:10;;;;;;;3.95;1.70;;;;;;;17.75;67.44;100938.11;1717504;83;21316;-65
2021/06/04 11:41:50;;;;;;;11.15;2.05;;;;;;;17.81;67.78;100942.27;1730276;83;21320;-63
2021/06/04 11:44:45;;;;;;;6.75;1.90;;;;;;;17.84;67.40;100937.95;1730830;83;21311;-64
2021/06/04 11:47:26;;;;;;;4.00;2.22;;;;;;;17.88;67.62;100943.27;1716502;83;21261;-60
2021/06/04 11:50:06;;;;;;;5.30;1.90;;;;;;;17.92;68.19;100949.04;1731326;83;21290;-66
2021/06/04 11:52:46;;;;;;;5.15;1.77;;;;;;;17.94;68.50;100946.55;1716343;83;21319;-67
2021/06/04 11:55:35;;;;;;;9.08;1.90;;;;;;;17.96;67.55;100950.38;1729559;83;21237;-63
2021/06/04 11:58:34;;;;;;;5.72;2.25;;;;;;;17.96;67.75;100955.16;1705267;83;21217;-68
2021/06/04 12:05:21;;;;;;;7.08;1.77;;;;;;;17.99;66.69;100956.16;1760412;81;21200;-70
2021/06/04 12:08:24;;;;;;;5.70;2.00;;;;;;;17.95;66.74;100952.69;1758797;81;21427;-64
2021/06/04 12:15:12;;;;;;;6.28;1.85;;;;;;;17.90;67.16;100956.33;1761480;81;21113;-65
2021/06/04 12:18:08;;;;;;;8.35;1.90;;;;;;;17.87;67.87;100956.16;1759747;81;22112;-63
2021/06/04 12:20:43;;;;;;;4.78;2.08;;;;;;;17.85;67.53;100955.50;1645447;86;21208;-61
2021/06/04 12:27:38;;;;;;;5.28;2.15;;;;;;;17.76;66.99;100959.64;1646657;87;21430;-63
